Time;durP1;ratioP1;P1;durP2;ratioP2;P2;SDS_P1;SDS_P2;PMS_P1;PMS_P2;Temp;Humidity;BMP_temperature;BMP_pressure;BME280_temperature;BME280_humidity;BME280_pressure;Samples;Min_cycle;Max_cycle;Signal;HPM_P1;HPM_P2
2022/02/17 00:02:22;;;;;;;2.90;0.73;;;13.80;99.90;;;;;;5076672;28;20822;-71
2022/02/17 00:04:49;;;;;;;1.27;0.60;;;13.70;99.90;;;;;;5077695;28;20452;-71
2022/02/17 00:07:17;;;;;;;1.70;0.83;;;13.70;99.90;;;;;;5076510;28;20479;-70
2022/02/17 00:09:44;;;;;;;1.43;0.70;;;13.60;99.90;;;;;;5076590;28;20444;-70
2022/02/17 00:12:11;;;;;;;2.70;1.40;;;13.50;99.90;;;;;;5077137;28;20483;-70
2022/02/17 00:14:38;;;;;;;2.50;0.93;;;13.40;99.90;;;;;;5077608;28;20452;-70
2022/02/17 00:17:05;;;;;;;2.10;0.70;;;13.40;99.90;;;;;;5076049;28;21017;-70
2022/02/17 00:19:32;;;;;;;1.93;1.10;;;13.40;99.90;;;;;;5076249;28;20440;-70
2022/02/17 00:21:58;;;;;;;1.70;0.77;;;13.50;99.90;;;;;;5076201;28;20443;-70
2022/02/17 00:24:26;;;;;;;3.13;0.77;;;13.50;99.90;;;;;;5075767;28;20932;-70
2022/02/17 00:26:54;;;;;;;1.20;0.87;;;13.50;99.90;;;;;;5078755;28;20460;-70
2022/02/17 00:29:20;;;;;;;1.80;0.80;;;13.50;99.90;;;;;;5077269;28;20544;-71
2022/02/17 00:31:47;;;;;;;1.87;0.90;;;13.50;99.90;;;;;;5076003;28;20451;-70
2022/02/17 00:34:14;;;;;;;1.27;0.73;;;13.60;99.90;;;;;;5076113;28;20452;-70
2022/02/17 00:36:40;;;;;;;0.97;0.50;;;13.60;99.90;;;;;;5075709;28;20878;-70
2022/02/17 00:39:07;;;;;;;1.53;0.70;;;13.60;99.90;;;;;;5075657;28;20447;-70
2022/02/17 00:41:36;;;;;;;1.93;1.00;;;13.60;99.90;;;;;;5076016;28;20448;-70
2022/02/17 00:44:03;;;;;;;1.10;0.80;;;13.60;99.90;;;;;;5076090;28;20441;-70
2022/02/17 00:46:30;;;;;;;1.80;0.93;;;13.70;99.90;;;;;;5076397;28;20460;-70
2022/02/17 00:48:56;;;;;;;4.10;0.77;;;13.60;99.90;;;;;;5076148;28;20444;-71
2022/02/17 00:51:23;;;;;;;4.10;0.80;;;13.50;99.90;;;;;;5075658;28;20448;-71
2022/02/17 00:53:50;;;;;;;2.97;1.07;;;13.50;99.90;;;;;;5076078;28;20469;-70
2022/02/17 00:56:17;;;;;;;3.07;1.03;;;13.40;99.90;;;;;;5076375;28;20465;-70
2022/02/17 00:58:45;;;;;;;3.17;1.17;;;13.50;99.90;;;;;;5077295;28;20448;-70
2022/02/17 01:01:11;;;;;;;3.00;1.60;;;13.50;99.90;;;;;;5078370;28;20449;-70
2022/02/17 01:03:38;;;;;;;4.77;1.23;;;13.50;99.90;;;;;;5077433;28;20935;-70
2022/02/17 01:06:05;;;;;;;2.83;1.10;;;13.60;99.90;;;;;;5076504;28;20494;-70
2022/02/17 01:08:32;;;;;;;4.00;1.57;;;13.60;99.90;;;;;;5075649;28;20514;-70
2022/02/17 01:10:58;;;;;;;3.23;0.90;;;13.60;99.90;;;;;;5076303;28;20445;-70
2022/02/17 01:13:27;;;;;;;1.97;0.60;;;13.60;99.90;;;;;;5075324;28;20999;-70
2022/02/17 01:15:55;;;;;;;3.17;1.07;;;13.60;99.90;;;;;;5075363;28;20475;-70
2022/02/17 01:18:22;;;;;;;5.20;1.20;;;13.40;99.90;;;;;;5075265;28;20444;-71
2022/02/17 01:20:49;;;;;;;2.20;0.80;;;13.40;99.90;;;;;;5075212;28;20451;-71
2022/02/17 01:23:16;;;;;;;5.80;1.20;;;13.20;99.90;;;;;;5074829;28;20511;-71
2022/02/17 01:25:43;;;;;;;3.57;2.20;;;13.20;99.90;;;;;;5075124;28;20444;-70
2022/02/17 01:28:10;;;;;;;4.90;1.53;;;13.10;99.90;;;;;;5075026;28;20455;-70
2022/02/17 01:30:37;;;;;;;6.00;1.53;;;13.10;99.90;;;;;;5075087;28;20444;-70
2022/02/17 01:33:05;;;;;;;5.87;1.80;;;13.20;99.90;;;;;;5074969;28;20476;-70
2022/02/17 01:35:32;;;;;;;5.07;1.30;;;13.20;99.90;;;;;;5074603;28;20445;-70
2022/02/17 01:37:59;;;;;;;4.20;1.17;;;13.20;99.90;;;;;;5074944;28;20448;-70
2022/02/17 01:40:26;;;;;;;4.80;1.50;;;13.20;99.90;;;;;;5075005;28;20448;-71
2022/02/17 01:42:52;;;;;;;3.00;1.53;;;13.20;99.90;;;;;;5075015;28;20443;-71
2022/02/17 01:45:19;;;;;;;11.37;1.50;;;13.20;99.90;;;;;;5075699;28;20451;-71
2022/02/17 01:47:47;;;;;;;6.43;1.77;;;13.10;99.90;;;;;;5074843;28;20471;-71
2022/02/17 01:50:15;;;;;;;8.90;1.70;;;13.10;99.90;;;;;;5074412;28;20978;-70
2022/02/17 01:52:43;;;;;;;7.87;1.70;;;13.10;99.90;;;;;;5074856;28;20499;-70
2022/02/17 01:55:10;;;;;;;10.03;2.10;;;13.10;99.90;;;;;;5074707;28;20447;-71
2022/02/17 01:57:39;;;;;;;7.03;2.10;;;13.20;99.90;;;;;;5074496;28;20472;-71
2022/02/17 02:00:08;;;;;;;6.87;2.27;;;13.20;99.90;;;;;;5074374;28;20490;-70
2022/02/17 02:02:35;;;;;;;7.00;1.90;;;13.10;99.90;;;;;;5073957;28;20808;-70
2022/02/17 02:05:01;;;;;;;10.67;2.37;;;13.10;99.90;;;;;;5073746;28;20469;-70
2022/02/17 02:07:29;;;;;;;9.70;2.70;;;13.10;99.90;;;;;;5073740;28;20990;-70
2022/02/17 02:09:56;;;;;;;8.47;2.23;;;13.10;99.90;;;;;;5074303;28;20448;-70
2022/02/17 02:12:23;;;;;;;5.60;1.93;;;13.00;99.90;;;;;;5074125;28;20962;-70
2022/02/17 02:14:52;;;;;;;8.97;2.17;;;13.10;99.90;;;;;;5073861;28;20963;-70
2022/02/17 02:17:20;;;;;;;9.17;2.30;;;13.00;99.90;;;;;;5074097;28;20468;-70
2022/02/17 02:19:47;;;;;;;8.20;2.80;;;13.00;99.90;;;;;;5074131;28;20455;-70
2022/02/17 02:22:15;;;;;;;12.10;3.07;;;12.90;99.90;;;;;;5074750;28;20449;-70
2022/02/17 02:24:42;;;;;;;12.80;2.80;;;12.90;99.90;;;;;;5073726;28;20967;-70
2022/02/17 02:27:13;;;;;;;12.73;3.40;;;12.90;99.20;;;;;;5073932;28;20464;-70
2022/02/17 02:29:40;;;;;;;10.23;2.80;;;12.90;99.60;;;;;;5073937;28;20452;-70
2022/02/17 02:32:08;;;;;;;14.70;2.97;;;12.80;99.30;;;;;;5073971;28;20452;-70
2022/02/17 02:34:35;;;;;;;10.87;3.20;;;12.80;98.50;;;;;;5073905;28;20516;-70
2022/02/17 02:37:04;;;;;;;7.67;2.57;;;12.80;98.00;;;;;;5073996;28;20497;-70
2022/02/17 02:39:32;;;;;;;11.80;3.40;;;12.70;98.00;;;;;;5074014;28;20452;-70
2022/02/17 02:41:59;;;;;;;10.73;3.30;;;12.70;97.70;;;;;;5073834;28;20467;-70
2022/02/17 02:44:26;;;;;;;12.97;3.37;;;12.70;97.80;;;;;;5073607;28;20479;-70
2022/02/17 02:46:53;;;;;;;15.63;4.23;;;12.70;97.60;;;;;;5073763;28;20461;-70
2022/02/17 02:49:20;;;;;;;14.87;2.97;;;12.70;98.50;;;;;;5074078;28;20447;-70
2022/02/17 02:51:47;;;;;;;20.80;3.40;;;12.50;98.60;;;;;;5074111;28;20509;-70
2022/02/17 02:54:14;;;;;;;19.80;4.27;;;12.50;99.40;;;;;;5073735;28;20489;-70
2022/02/17 02:56:43;;;;;;;13.53;3.40;;;12.40;99.90;;;;;;5073609;28;20821;-70
2022/02/17 02:59:10;;;;;;;14.57;3.60;;;12.20;99.90;;;;;;5073825;28;20475;-70
2022/02/17 03:01:37;;;;;;;11.27;3.03;;;12.20;99.90;;;;;;5073627;28;20452;-70
2022/02/17 03:04:04;;;;;;;17.60;3.87;;;12.30;99.70;;;;;;5073237;28;20943;-70
2022/02/17 03:06:31;;;;;;;18.33;4.20;;;12.30;99.60;;;;;;5073361;28;20472;-70
2022/02/17 03:08:58;;;;;;;19.70;4.03;;;12.30;99.60;;;;;;5073345;28;20406;-70
2022/02/17 03:11:25;;;;;;;13.67;4.30;;;12.20;98.50;;;;;;5073578;28;20449;-70
2022/02/17 03:13:53;;;;;;;16.00;4.07;;;12.20;98.60;;;;;;5073148;28;21001;-70
2022/02/17 03:16:20;;;;;;;16.33;5.17;;;12.20;97.90;;;;;;5079722;28;20467;-70
2022/02/17 03:18:47;;;;;;;12.33;3.67;;;12.20;98.40;;;;;;5079921;28;20436;-70
2022/02/17 03:21:13;;;;;;;19.20;4.10;;;12.20;97.70;;;;;;5080171;28;20806;-70
2022/02/17 03:23:40;;;;;;;13.63;3.37;;;12.20;97.70;;;;;;5079865;28;20459;-70
2022/02/17 03:26:07;;;;;;;12.77;4.00;;;12.20;97.10;;;;;;5079943;28;20472;-70
2022/02/17 03:28:34;;;;;;;14.13;4.03;;;12.20;97.10;;;;;;5080085;28;20476;-70
2022/02/17 03:31:02;;;;;;;13.87;4.37;;;12.20;96.90;;;;;;5080033;28;20448;-70
2022/02/17 03:33:29;;;;;;;17.57;4.07;;;12.20;96.60;;;;;;5080140;28;20480;-70
2022/02/17 03:35:56;;;;;;;17.33;3.40;;;12.20;96.60;;;;;;5080013;28;20476;-70
2022/02/17 03:38:23;;;;;;;15.00;4.43;;;12.20;95.70;;;;;;5079559;28;20939;-70
2022/02/17 03:40:49;;;;;;;15.90;3.50;;;12.20;95.80;;;;;;5079573;28;20926;-70
2022/02/17 03:43:17;;;;;;;16.80;3.60;;;12.10;94.10;;;;;;5079964;28;20451;-70
2022/02/17 03:45:44;;;;;;;11.90;4.40;;;12.10;94.80;;;;;;5079662;28;20890;-70
2022/02/17 03:48:12;;;;;;;20.57;3.77;;;12.10;94.90;;;;;;5079804;28;20500;-70
2022/02/17 03:50:40;;;;;;;13.70;3.37;;;12.10;94.50;;;;;;5079896;28;20452;-70
2022/02/17 03:53:07;;;;;;;13.87;3.33;;;12.10;94.90;;;;;;5079777;28;20563;-70
2022/02/17 03:55:34;;;;;;;19.30;5.00;;;12.10;94.40;;;;;;5079761;28;20471;-69
2022/02/17 03:58:00;;;;;;;15.07;4.13;;;12.00;94.20;;;;;;5079714;28;20448;-70
2022/02/17 04:00:27;;;;;;;13.80;3.40;;;12.00;94.80;;;;;;5079804;28;20444;-70
2022/02/17 04:02:54;;;;;;;14.50;4.20;;;11.90;94.00;;;;;;5079780;28;20455;-70
2022/02/17 04:05:22;;;;;;;15.27;4.23;;;11.90;94.40;;;;;;5079747;28;20455;-70
2022/02/17 04:07:49;;;;;;;13.23;4.40;;;11.90;94.70;;;;;;5079232;28;21006;-70
2022/02/17 04:10:15;;;;;;;14.23;4.20;;;11.80;94.10;;;;;;5079675;28;20440;-70
2022/02/17 04:12:42;;;;;;;21.93;4.50;;;11.90;94.20;;;;;;5079680;28;20814;-70
2022/02/17 04:15:10;;;;;;;17.60;3.87;;;11.80;94.10;;;;;;5079182;28;21060;-70
2022/02/17 04:17:37;;;;;;;20.67;4.73;;;11.80;93.70;;;;;;5079588;28;20494;-70
2022/02/17 04:20:04;;;;;;;14.10;3.53;;;11.80;94.00;;;;;;5079430;28;20444;-70
2022/02/17 04:22:33;;;;;;;15.00;4.40;;;11.80;94.10;;;;;;5079496;28;20453;-70
2022/02/17 04:24:59;;;;;;;19.53;4.17;;;11.80;93.30;;;;;;5079557;28;20527;-70
2022/02/17 04:27:26;;;;;;;17.33;3.77;;;11.80;93.10;;;;;;5075902;28;20813;-70
2022/02/17 04:29:53;;;;;;;10.47;3.30;;;11.80;92.60;;;;;;5076606;28;20440;-70
2022/02/17 04:32:19;;;;;;;14.80;4.60;;;11.80;92.90;;;;;;5076476;28;20462;-70
2022/02/17 04:34:46;;;;;;;15.77;3.93;;;11.70;92.70;;;;;;5076352;28;20480;-70
2022/02/17 04:37:13;;;;;;;21.63;5.33;;;11.70;92.80;;;;;;5076091;28;20445;-69
2022/02/17 04:39:41;;;;;;;26.03;4.57;;;11.70;92.40;;;;;;5076241;28;20451;-70
2022/02/17 04:42:19;;;;;;;13.40;4.20;;;11.70;92.20;;;;;;5075839;28;20444;-70
2022/02/17 04:44:47;;;;;;;21.67;4.63;;;11.70;92.50;;;;;;5076151;28;20477;-70
2022/02/17 04:47:14;;;;;;;24.60;4.60;;;11.50;95.10;;;;;;5075984;28;20461;-70
2022/02/17 04:49:41;;;;;;;15.10;3.80;;;11.40;95.50;;;;;;5075886;28;20962;-69
2022/02/17 04:52:08;;;;;;;16.70;4.00;;;11.30;94.40;;;;;;5076042;28;20468;-70
2022/02/17 04:54:36;;;;;;;17.73;3.60;;;11.30;94.50;;;;;;5075928;28;20886;-70
2022/02/17 04:57:05;;;;;;;17.50;4.83;;;11.30;94.20;;;;;;5075848;28;20460;-70
2022/02/17 04:59:32;;;;;;;16.37;3.87;;;11.30;94.30;;;;;;5076651;28;20452;-70
2022/02/17 05:01:59;;;;;;;24.47;5.33;;;11.30;94.30;;;;;;5075796;28;20451;-70
2022/02/17 05:04:26;;;;;;;18.23;4.57;;;11.30;93.70;;;;;;5075752;28;20441;-70
2022/02/17 05:06:53;;;;;;;20.10;4.87;;;11.30;93.50;;;;;;5075385;28;20481;-69
2022/02/17 05:09:20;;;;;;;15.27;3.40;;;11.30;93.50;;;;;;5075775;28;20445;-70
2022/02/17 05:11:47;;;;;;;16.17;4.20;;;11.30;94.70;;;;;;5075467;28;20453;-69
2022/02/17 05:14:15;;;;;;;17.47;4.97;;;11.20;96.20;;;;;;5075361;28;21003;-70
2022/02/17 05:16:41;;;;;;;22.63;4.70;;;11.10;96.30;;;;;;5075569;28;20476;-69
2022/02/17 05:19:08;;;;;;;21.53;4.80;;;11.10;95.70;;;;;;5075584;28;20448;-70
2022/02/17 05:21:35;;;;;;;22.03;4.70;;;11.00;95.60;;;;;;5075636;28;20451;-70
2022/02/17 05:24:02;;;;;;;27.27;6.23;;;11.10;95.80;;;;;;5075733;28;20437;-70
2022/02/17 05:26:29;;;;;;;18.07;4.40;;;11.10;96.20;;;;;;5075393;28;20449;-70
2022/02/17 05:28:55;;;;;;;21.63;4.53;;;11.10;96.30;;;;;;5075229;28;20490;-70
2022/02/17 05:31:24;;;;;;;18.47;4.80;;;11.10;95.60;;;;;;5074953;28;20429;-70
2022/02/17 05:33:53;;;;;;;18.77;4.70;;;11.10;95.30;;;;;;5074887;28;20487;-70
2022/02/17 05:36:20;;;;;;;17.90;4.57;;;11.10;95.50;;;;;;5074913;28;20554;-70
2022/02/17 05:38:47;;;;;;;27.50;7.30;;;11.00;94.90;;;;;;5073719;28;20444;-70
2022/02/17 05:41:13;;;;;;;20.47;5.40;;;11.10;95.20;;;;;;5075135;28;20531;-70
2022/02/17 05:43:42;;;;;;;30.33;6.27;;;11.10;95.10;;;;;;5074997;28;20935;-70
2022/02/17 05:46:08;;;;;;;19.00;5.10;;;11.10;94.90;;;;;;5074435;28;20970;-70
2022/02/17 05:48:37;;;;;;;24.50;5.40;;;11.10;94.80;;;;;;5074834;28;20453;-70
2022/02/17 05:51:03;;;;;;;23.23;6.00;;;11.00;94.80;;;;;;5074827;28;20440;-70
2022/02/17 05:53:30;;;;;;;20.00;5.33;;;11.00;94.90;;;;;;5074537;28;20452;-70
2022/02/17 05:55:57;;;;;;;24.07;5.57;;;11.00;94.80;;;;;;5074584;28;20473;-70
2022/02/17 05:58:23;;;;;;;25.43;6.00;;;11.10;94.40;;;;;;5074360;28;20459;-70
2022/02/17 06:00:50;;;;;;;25.63;5.00;;;11.10;94.70;;;;;;5074589;28;20448;-70
2022/02/17 06:03:17;;;;;;;25.80;5.87;;;11.00;94.10;;;;;;5074626;28;20452;-70
2022/02/17 06:05:45;;;;;;;22.33;5.03;;;11.10;94.80;;;;;;5074507;28;20433;-70
2022/02/17 06:08:12;;;;;;;21.10;4.90;;;11.00;94.20;;;;;;5074061;28;20463;-70
2022/02/17 06:10:38;;;;;;;25.57;5.53;;;11.00;94.50;;;;;;5074171;28;20445;-70
2022/02/17 06:13:05;;;;;;;15.10;4.30;;;11.00;94.70;;;;;;5074411;28;20453;-70
2022/02/17 06:15:32;;;;;;;25.30;4.50;;;11.00;94.60;;;;;;5074251;28;20480;-70
2022/02/17 06:17:59;;;;;;;21.33;4.87;;;11.00;95.10;;;;;;5074009;28;20869;-70
2022/02/17 06:20:26;;;;;;;26.10;5.93;;;11.00;95.60;;;;;;5074160;28;20444;-70
2022/02/17 06:22:54;;;;;;;27.13;7.10;;;10.90;94.80;;;;;;5074259;28;20456;-70
2022/02/17 06:25:21;;;;;;;20.00;5.20;;;10.90;95.00;;;;;;5074105;28;20444;-71
2022/02/17 06:27:48;;;;;;;22.17;5.00;;;10.90;95.30;;;;;;5073740;28;20460;-70
2022/02/17 06:30:15;;;;;;;25.07;5.20;;;10.90;94.90;;;;;;5073810;28;20944;-70
2022/02/17 06:32:49;;;;;;;24.40;5.07;;;10.80;94.60;;;;;;5074061;28;20483;-70
2022/02/17 06:35:20;;;;;;;28.73;5.33;;;10.90;94.60;;;;;;5073878;28;20549;-70
2022/02/17 06:37:48;;;;;;;23.33;4.33;;;10.90;93.70;;;;;;5074081;28;20506;-70
2022/02/17 06:40:17;;;;;;;24.33;5.50;;;10.90;92.90;;;;;;5073858;28;20452;-70
2022/02/17 06:42:43;;;;;;;14.30;3.90;;;10.90;92.80;;;;;;5073701;28;20539;-69
2022/02/17 06:45:11;;;;;;;24.93;3.80;;;10.80;92.00;;;;;;5073805;28;20445;-69
2022/02/17 06:47:38;;;;;;;22.13;5.70;;;10.90;91.30;;;;;;5073745;28;20562;-69
2022/02/17 06:50:07;;;;;;;17.30;4.43;;;10.80;91.50;;;;;;5073358;28;20444;-69
2022/02/17 06:52:34;;;;;;;21.47;4.60;;;10.90;91.40;;;;;;5073855;28;20444;-69
2022/02/17 06:55:01;;;;;;;19.43;4.60;;;10.90;91.40;;;;;;5073472;28;20476;-69
2022/02/17 06:57:29;;;;;;;26.40;4.43;;;10.80;91.10;;;;;;5073472;28;20476;-69
2022/02/17 06:59:56;;;;;;;17.13;3.67;;;10.80;91.30;;;;;;5073636;28;20459;-69
2022/02/17 07:02:23;;;;;;;20.57;4.53;;;10.80;90.70;;;;;;5073532;28;20471;-69
2022/02/17 07:04:50;;;;;;;23.57;6.40;;;10.80;91.00;;;;;;5073322;28;20927;-69
2022/02/17 07:07:18;;;;;;;26.23;5.97;;;10.80;91.70;;;;;;5072961;28;21013;-69
2022/02/17 07:09:45;;;;;;;19.60;4.27;;;10.80;92.10;;;;;;5073377;28;20456;-69
2022/02/17 07:12:12;;;;;;;22.70;5.50;;;10.80;92.10;;;;;;5073322;28;20444;-69
2022/02/17 07:14:40;;;;;;;29.03;4.87;;;10.80;92.50;;;;;;5073194;28;20489;-69
2022/02/17 07:17:07;;;;;;;22.43;6.07;;;10.90;92.70;;;;;;5073373;28;20472;-69
2022/02/17 07:19:34;;;;;;;27.00;5.60;;;10.80;93.10;;;;;;5073141;28;20939;-69
2022/02/17 07:22:01;;;;;;;19.60;5.40;;;10.90;93.70;;;;;;5073463;28;20437;-69
2022/02/17 07:24:28;;;;;;;29.37;5.43;;;10.80;92.90;;;;;;5073521;28;20445;-69
2022/02/17 07:26:55;;;;;;;17.20;4.20;;;10.80;93.50;;;;;;5073121;28;20453;-69
2022/02/17 07:29:21;;;;;;;27.30;5.60;;;10.80;92.70;;;;;;5073335;28;20424;-69
2022/02/17 07:31:52;;;;;;;21.93;4.90;;;10.80;93.00;;;;;;5073120;28;20449;-69
2022/02/17 07:34:19;;;;;;;21.03;4.70;;;10.80;92.70;;;;;;5073753;28;20460;-69
2022/02/17 07:36:45;;;;;;;20.37;4.30;;;10.80;92.30;;;;;;5073031;28;20490;-69
2022/02/17 07:39:12;;;;;;;19.70;5.07;;;10.80;91.50;;;;;;5073220;28;20525;-69
2022/02/17 07:41:39;;;;;;;22.63;4.97;;;10.80;90.70;;;;;;5073594;28;20447;-69
2022/02/17 07:44:08;;;;;;;16.37;3.77;;;10.80;90.60;;;;;;5074063;28;20445;-69
2022/02/17 07:46:35;;;;;;;14.53;3.80;;;10.80;90.00;;;;;;5073091;28;20468;-69
2022/02/17 07:49:04;;;;;;;17.77;4.67;;;10.80;87.30;;;;;;5073242;28;20444;-69
2022/02/17 07:51:31;;;;;;;16.50;4.60;;;10.80;86.80;;;;;;5073088;28;20451;-69
2022/02/17 07:53:58;;;;;;;12.40;3.20;;;10.80;87.10;;;;;;5073052;28;20456;-69
2022/02/17 07:56:25;;;;;;;12.80;4.20;;;10.80;87.60;;;;;;5073174;28;20460;-69
2022/02/17 07:58:52;;;;;;;22.13;4.47;;;10.80;88.70;;;;;;5073127;28;20448;-69
2022/02/17 08:01:19;;;;;;;28.90;4.50;;;10.80;90.00;;;;;;5073406;28;20448;-69
2022/02/17 08:03:46;;;;;;;15.47;4.13;;;10.80;90.40;;;;;;5076946;28;20437;-69
2022/02/17 08:06:14;;;;;;;24.57;5.47;;;10.90;90.70;;;;;;5076689;28;20467;-69
2022/02/17 08:08:47;;;;;;;20.17;4.83;;;10.90;91.00;;;;;;5076580;28;20456;-69
2022/02/17 08:11:14;;;;;;;21.07;4.93;;;10.90;91.40;;;;;;5076509;28;20429;-69
2022/02/17 08:13:41;;;;;;;19.00;5.00;;;10.90;90.60;;;;;;5076280;28;20440;-70
2022/02/17 08:16:07;;;;;;;24.10;5.50;;;10.90;90.70;;;;;;5076405;28;20488;-69
2022/02/17 08:18:34;;;;;;;22.20;3.90;;;11.00;90.90;;;;;;5076185;28;20452;-69
2022/02/17 08:21:01;;;;;;;14.57;4.13;;;10.90;90.10;;;;;;5076507;28;20459;-69
2022/02/17 08:23:31;;;;;;;12.77;4.57;;;10.90;88.70;;;;;;5076539;28;20478;-69
2022/02/17 08:26:00;;;;;;;14.23;4.00;;;10.90;87.50;;;;;;5076306;28;20500;-69
2022/02/17 08:28:27;;;;;;;16.20;3.80;;;10.90;87.90;;;;;;5076035;28;20429;-69
2022/02/17 08:30:53;;;;;;;18.50;4.70;;;10.90;87.60;;;;;;5076361;28;20447;-69
2022/02/17 08:33:20;;;;;;;19.23;4.93;;;10.90;88.40;;;;;;5076441;28;20429;-69
2022/02/17 08:35:47;;;;;;;29.93;6.10;;;10.90;90.10;;;;;;5076095;28;20487;-69
2022/02/17 08:38:14;;;;;;;27.83;4.77;;;10.90;90.50;;;;;;5076151;28;20445;-69
2022/02/17 08:40:42;;;;;;;18.83;4.57;;;10.90;90.60;;;;;;5076225;28;20449;-69
2022/02/17 08:43:13;;;;;;;23.20;4.60;;;11.00;90.70;;;;;;5075982;28;20832;-69
2022/02/17 08:45:41;;;;;;;19.97;5.37;;;11.00;90.00;;;;;;5076035;28;20433;-69
2022/02/17 08:48:09;;;;;;;15.90;3.70;;;11.00;88.30;;;;;;5076230;28;20539;-69
2022/02/17 08:50:37;;;;;;;13.73;3.97;;;11.00;88.40;;;;;;5076430;28;20444;-69
2022/02/17 08:53:04;;;;;;;15.70;4.30;;;11.00;89.60;;;;;;5076396;28;20444;-70
2022/02/17 08:55:30;;;;;;;26.80;4.53;;;10.90;89.80;;;;;;5080315;28;20538;-69
2022/02/17 08:57:58;;;;;;;25.87;4.97;;;10.90;90.20;;;;;;5077825;28;20471;-70
2022/02/17 09:00:25;;;;;;;14.80;4.17;;;10.90;89.20;;;;;;5076008;28;20456;-69
2022/02/17 09:02:52;;;;;;;16.20;4.60;;;11.00;89.00;;;;;;5076294;28;20808;-70
2022/02/17 09:05:19;;;;;;;19.40;4.23;;;11.00;88.10;;;;;;5076044;28;20448;-69
2022/02/17 09:07:45;;;;;;;11.40;3.37;;;11.00;88.50;;;;;;5075846;28;20564;-70
2022/02/17 09:10:12;;;;;;;23.40;5.30;;;11.10;86.30;;;;;;5075850;28;20459;-69
2022/02/17 09:12:40;;;;;;;16.37;3.87;;;11.10;88.20;;;;;;5075475;28;20796;-69
2022/02/17 09:15:10;;;;;;;17.20;4.50;;;11.10;84.50;;;;;;5075209;28;20476;-69
2022/02/17 09:17:37;;;;;;;15.93;3.40;;;11.10;86.90;;;;;;5075234;28;21053;-69
2022/02/17 09:20:05;;;;;;;17.30;5.27;;;11.00;84.70;;;;;;5075591;28;20444;-70
2022/02/17 09:22:32;;;;;;;10.63;3.40;;;11.10;84.70;;;;;;5075448;28;20817;-69
2022/02/17 09:24:59;;;;;;;19.83;4.17;;;11.10;82.60;;;;;;5075539;28;20444;-70
2022/02/17 09:27:27;;;;;;;14.83;3.93;;;11.10;81.10;;;;;;5075246;28;20468;-69
2022/02/17 09:29:54;;;;;;;15.53;4.03;;;11.10;80.90;;;;;;5075540;28;20480;-69
2022/02/17 09:32:23;;;;;;;22.03;4.30;;;11.10;82.60;;;;;;5075022;28;20931;-69
2022/02/17 09:34:50;;;;;;;17.37;4.83;;;11.10;84.00;;;;;;5075138;28;20855;-69
2022/02/17 09:37:17;;;;;;;14.90;4.20;;;11.10;84.00;;;;;;5074787;28;20468;-69
2022/02/17 09:39:44;;;;;;;24.70;3.70;;;11.20;83.10;;;;;;5074718;28;20486;-69
2022/02/17 09:42:11;;;;;;;13.70;3.67;;;11.20;80.60;;;;;;5075502;28;20498;-69
2022/02/17 09:44:39;;;;;;;18.97;4.27;;;11.20;82.20;;;;;;5074576;28;20449;-69
2022/02/17 09:47:07;;;;;;;16.27;3.63;;;11.20;80.20;;;;;;5075555;28;20479;-69
2022/02/17 09:49:36;;;;;;;15.33;3.87;;;11.10;82.30;;;;;;5074860;28;20448;-69
2022/02/17 09:52:03;;;;;;;21.27;4.90;;;11.10;82.90;;;;;;5074872;28;20810;-69
2022/02/17 09:54:30;;;;;;;21.13;4.83;;;11.30;82.60;;;;;;5074930;28;20452;-69
2022/02/17 09:56:57;;;;;;;10.13;4.00;;;11.50;84.90;;;;;;5074771;28;20483;-69
2022/02/17 09:59:24;;;;;;;16.23;3.80;;;11.70;83.90;;;;;;5074804;28;20445;-69
2022/02/17 10:01:56;;;;;;;13.73;4.03;;;11.80;83.40;;;;;;5074794;28;20955;-69
2022/02/17 10:04:24;;;;;;;12.93;4.20;;;11.90;79.40;;;;;;5074770;28;20445;-69
2022/02/17 10:06:54;;;;;;;15.80;3.83;;;11.80;77.30;;;;;;5074205;28;20498;-69
2022/02/17 10:09:22;;;;;;;26.03;3.60;;;11.80;79.50;;;;;;5074750;28;20512;-69
2022/02/17 10:11:51;;;;;;;10.47;2.77;;;11.70;75.30;;;;;;5074712;28;20444;-69
2022/02/17 10:14:20;;;;;;;11.07;2.87;;;11.50;70.50;;;;;;5074561;28;20441;-69
2022/02/17 10:16:54;;;;;;;13.77;3.93;;;11.40;71.60;;;;;;5074215;28;20490;-69
2022/02/17 10:19:23;;;;;;;12.13;3.67;;;11.40;75.40;;;;;;5074127;28;20451;-69
2022/02/17 10:22:01;;;;;;;14.27;3.20;;;11.50;74.80;;;;;;5074049;28;20522;-69
2022/02/17 10:24:33;;;;;;;14.63;3.50;;;11.60;76.30;;;;;;5073378;28;20433;-69
2022/02/17 10:27:05;;;;;;;8.67;2.83;;;11.70;73.40;;;;;;5074016;28;20461;-69
2022/02/17 10:29:34;;;;;;;15.90;3.33;;;11.90;74.30;;;;;;5073968;28;20440;-69
2022/02/17 10:32:10;;;;;;;12.67;2.83;;;11.90;73.80;;;;;;5073634;28;20452;-69
2022/02/17 10:34:38;;;;;;;10.40;2.73;;;11.90;74.90;;;;;;5073662;28;20922;-69
2022/02/17 10:37:09;;;;;;;13.17;3.27;;;11.90;73.80;;;;;;5073678;28;20601;-69
2022/02/17 10:39:42;;;;;;;10.60;2.97;;;12.00;72.80;;;;;;5073558;28;20896;-69
2022/02/17 10:42:10;;;;;;;13.47;3.67;;;12.10;74.10;;;;;;5073920;28;20498;-69
2022/02/17 10:44:38;;;;;;;10.80;2.60;;;12.00;73.20;;;;;;5073865;28;20808;-69
2022/02/17 10:47:16;;;;;;;14.10;3.57;;;12.00;73.10;;;;;;5073674;28;20460;-70
2022/02/17 10:49:44;;;;;;;6.07;2.73;;;12.10;72.00;;;;;;5073363;28;20428;-69
2022/02/17 10:52:13;;;;;;;7.60;2.00;;;12.20;64.90;;;;;;5073344;28;20452;-69
2022/02/17 10:54:40;;;;;;;8.27;2.37;;;12.10;65.10;;;;;;5073599;28;20861;-69
2022/02/17 10:57:07;;;;;;;10.20;2.27;;;12.00;66.50;;;;;;5073538;28;20492;-69
2022/02/17 11:02:24;;;;;;;7.10;1.50;;;11.70;62.40;;;;;;5073587;28;20475;-69
2022/02/17 11:04:51;;;;;;;6.93;1.80;;;11.50;64.50;;;;;;5073110;28;20872;-69
2022/02/17 11:07:20;;;;;;;6.00;2.33;;;11.70;66.40;;;;;;5073245;28;20472;-69
2022/02/17 11:09:48;;;;;;;9.13;1.87;;;11.70;67.90;;;;;;5073521;28;20448;-69
2022/02/17 11:12:16;;;;;;;5.07;1.70;;;11.80;67.10;;;;;;5073424;28;20431;-69
2022/02/17 11:14:44;;;;;;;10.83;3.63;;;11.80;66.70;;;;;;5073340;28;20855;-69
2022/02/17 11:17:13;;;;;;;11.90;2.40;;;11.80;66.40;;;;;;5073258;28;20480;-69
2022/02/17 11:19:41;;;;;;;10.80;2.93;;;11.90;66.40;;;;;;5073367;28;20448;-69
2022/02/17 11:22:08;;;;;;;8.77;2.20;;;12.20;66.30;;;;;;5073306;28;20452;-69
2022/02/17 11:24:53;;;;;;;10.23;2.77;;;12.50;61.20;;;;;;5073296;28;20453;-69
2022/02/17 11:27:21;;;;;;;7.20;2.50;;;12.90;64.80;;;;;;5073330;28;20971;-70
2022/02/17 11:29:48;;;;;;;6.13;2.40;;;13.20;60.80;;;;;;5073324;28;20440;-70
2022/02/17 11:32:17;;;;;;;10.60;2.43;;;13.50;61.40;;;;;;5073224;28;20453;-70
2022/02/17 11:34:46;;;;;;;9.27;2.83;;;13.70;59.40;;;;;;5072983;28;20528;-69
2022/02/17 11:37:45;;;;;;;8.20;2.30;;;13.70;58.20;;;;;;5076344;28;20507;-69
2022/02/17 11:40:16;;;;;;;14.53;2.70;;;13.70;58.60;;;;;;5077104;28;20449;-69
2022/02/17 11:42:45;;;;;;;5.70;2.13;;;13.80;59.60;;;;;;5077678;28;20425;-69
2022/02/17 11:45:15;;;;;;;9.13;2.07;;;13.80;55.10;;;;;;5076773;28;20498;-69
2022/02/17 11:48:02;;;;;;;10.40;2.00;;;13.80;54.70;;;;;;5076920;28;20548;-69
2022/02/17 11:50:47;;;;;;;7.93;2.17;;;13.70;55.00;;;;;;5076933;28;20429;-69
2022/02/17 11:53:25;;;;;;;8.60;3.53;;;13.70;55.20;;;;;;5076943;28;20433;-69
2022/02/17 11:55:54;;;;;;;4.30;1.70;;;13.80;54.20;;;;;;5076674;28;20494;-69
2022/02/17 11:58:43;;;;;;;4.17;1.80;;;13.70;52.90;;;;;;5076928;28;20514;-69
2022/02/17 12:01:38;;;;;;;7.17;2.30;;;13.60;53.00;;;;;;5076798;28;20445;-69
2022/02/17 12:04:09;;;;;;;6.13;1.80;;;13.90;54.90;;;;;;5076774;28;20468;-69
2022/02/17 12:06:41;;;;;;;8.57;2.50;;;14.20;55.50;;;;;;5076213;28;20979;-69
2022/02/17 12:09:08;;;;;;;7.27;2.50;;;14.40;53.90;;;;;;5076610;28;20906;-69
2022/02/17 12:11:38;;;;;;;6.90;2.30;;;14.40;53.70;;;;;;5076712;28;20800;-69
2022/02/17 12:14:05;;;;;;;6.63;2.67;;;14.40;52.50;;;;;;5076279;28;20484;-70
2022/02/17 12:16:37;;;;;;;8.60;1.83;;;14.60;52.80;;;;;;5076163;28;20567;-69
2022/02/17 12:19:11;;;;;;;4.30;2.03;;;14.80;52.20;;;;;;5076566;28;20455;-69
2022/02/17 12:21:40;;;;;;;5.23;1.90;;;15.00;51.10;;;;;;5076543;28;20879;-70
2022/02/17 12:24:08;;;;;;;4.43;1.93;;;15.10;50.50;;;;;;5076726;28;20444;-70
2022/02/17 12:26:43;;;;;;;5.87;1.73;;;15.00;51.30;;;;;;5076883;28;20492;-69
2022/02/17 12:29:25;;;;;;;5.47;2.30;;;15.20;51.90;;;;;;5076513;28;20433;-69
2022/02/17 12:31:53;;;;;;;6.73;1.67;;;15.60;51.60;;;;;;5076296;28;20433;-69
2022/02/17 12:34:20;;;;;;;3.93;1.43;;;15.80;50.10;;;;;;5076344;28;20448;-70
2022/02/17 12:36:47;;;;;;;6.30;2.50;;;15.90;49.20;;;;;;5076003;28;20480;-70
2022/02/17 12:39:13;;;;;;;3.37;1.80;;;15.80;48.60;;;;;;5075849;28;20445;-70
2022/02/17 12:41:56;;;;;;;4.70;1.50;;;15.40;49.10;;;;;;5076074;28;20457;-70
2022/02/17 12:44:28;;;;;;;9.13;1.97;;;15.40;50.90;;;;;;5076081;28;20460;-70
2022/02/17 12:46:54;;;;;;;7.93;2.43;;;15.50;50.20;;;;;;5075488;28;20473;-70
2022/02/17 12:49:21;;;;;;;8.83;1.70;;;15.50;49.90;;;;;;5075914;28;20445;-70